• Join FlightAware (Why Join?)
  • Login
  • US Flag 
Rudolph Flight #1: Arrived! 
04:34AM EST


 

Airport Tracker/Info


-or-


 

Live Flight TrackerFlight Track Log ✈ GGN7280 ✈ 21-Apr-2013 ✈ CYYZ - KROC

Flight Track Log - Related Links

Times and Time Zones

All times are in EDT time to prevent confusion due to time zone crossing. See the GGN7280 flight status page for this flight to view local times or setup timezone preferences in your user account.

Time Position Orientation Groundspeed Altitude Reporting Facility
EDT Latitude Longitude Course Direction KTS MPH feet Rate Location/Type
05:34PM 43.6667 -79.5667 90° East 150 173 1,400  Level Toronto Center
05:35PM 43.6667 -79.5167 90° East 170 196 3,100 1,620 Climbing Toronto Center
05:36PM 43.6333 -79.4500 125° Southeast 180 207 4,700 900 Climbing Toronto Center
05:37PM 43.6000 -79.3833 125° Southeast 230 265 5,000 840 Climbing Toronto Center
05:38PM 43.5833 -79.3167 109° East 230 265 6,400 1,440 Climbing Toronto Center
05:39PM 43.5500 -79.2500 125° Southeast 210 242 7,900 1,560 Climbing Toronto Center
05:40PM 43.5333 -79.1500 103° East 210 242 9,600 1,080 Climbing Toronto Center
05:41PM 43.5069 -79.0636 113° Southeast 211 243 10,900 660 Climbing Cleveland Center
05:42PM 43.4833 -79.0167 125° Southeast 240 276 11,000 60 Climbing Toronto Center
05:43PM 43.4667 -78.9000 101° East 260 299 11,000  Level Toronto Center
05:44PM 43.4333 -78.8000 115° Southeast 260 299 11,000  Level Toronto Center
05:45PM 43.4167 -78.7167 105° East 260 299 11,000  Level Toronto Center
05:46PM 43.3833 -78.6167 115° Southeast 260 299 11,000  Level Toronto Center
05:46PM 43.3808 -78.5925 98° East 262 302 11,000 -360 Level Cleveland Center
05:47PM 43.3522 -78.5019 113° Southeast 262 302 10,500 -900 Descending Cleveland Center
05:48PM 43.3211 -78.3947 112° Southeast 275 316 9,200 -840 Descending Cleveland Center
05:49PM 43.2942 -78.2958 110° East 257 296 8,900 -900 Descending Cleveland Center
05:50PM 43.2903 -78.1989 93° East 261 300 7,500 -1,440 Descending Cleveland Center
05:51PM 43.2511 -78.1292 128° Southeast 251 289 6,000 -1,500 Descending Cleveland Center
05:52PM 43.1856 -78.0806 152° Southeast 250 288 4,500 -1,140 Descending Cleveland Center
05:53PM 43.1347 -78.0397 150° Southeast 233 268 3,900 -300 Descending Cleveland Center
05:54PM 43.0794 -77.9967 150° Southeast 229 264 4,000 -480 Climbing Cleveland Center
05:55PM 43.0547 -77.9181 113° Southeast 227 261 3,000 -540 Descending Cleveland Center
05:56PM 43.0425 -77.8361 102° East 185 213 2,900 -420 Descending Cleveland Center
05:57PM 43.0389 -77.7794 95° East 163 188 2,200 -720 Descending Cleveland Center
05:58PM 43.0567 -77.7361 61° Northeast 138 159 1,600 -720 Descending Cleveland Center
05:59PM 43.0811 -77.7094 39° Northeast 126 145 1,000 -720 Descending Cleveland Center